Time;durP1;ratioP1;P1;durP2;ratioP2;P2;SDS_P1;SDS_P2;PMS_P1;PMS_P2;Temp;Humidity;BMP_temperature;BMP_pressure;BME280_temperature;BME280_humidity;BME280_pressure;Samples;Min_cycle;Max_cycle;Signal;HPM_P1;HPM_P2
2021/05/09 00:00:58;;;;;;;;;;;9.40;93.80;;;;;;5043943;28;20582;-57
2021/05/09 00:03:23;;;;;;;4.18;1.30;;;9.40;94.00;;;;;;5037850;28;19924;-58
2021/05/09 00:05:49;;;;;;;;;;;9.40;94.10;;;;;;5047731;28;20316;-58
2021/05/09 00:08:15;;;;;;;5.05;1.20;;;9.40;94.20;;;;;;5061676;28;19924;-59
2021/05/09 00:10:41;;;;;;;;;;;9.40;94.20;;;;;;5061739;28;20106;-61
2021/05/09 00:13:07;;;;;;;2.25;1.33;;;9.50;94.40;;;;;;5060037;28;20452;-61
2021/05/09 00:15:32;;;;;;;;;;;9.50;94.60;;;;;;5059508;28;20033;-58
2021/05/09 00:17:58;;;;;;;4.18;1.40;;;9.50;94.70;;;;;;5052788;28;19921;-60
2021/05/09 00:20:24;;;;;;;;;;;9.50;94.70;;;;;;5048667;28;20040;-61
2021/05/09 00:22:49;;;;;;;4.53;1.52;;;9.50;94.80;;;;;;5048077;28;19917;-60
2021/05/09 00:25:15;;;;;;;;;;;9.50;94.90;;;;;;5048547;28;20037;-59
2021/05/09 00:27:41;;;;;;;2.30;1.50;;;9.50;95.10;;;;;;5048335;28;19921;-59
2021/05/09 00:30:08;;;;;;;3.90;1.75;;;9.50;95.40;;;;;;5047800;28;20044;-60
2021/05/09 00:32:34;;;;;;;2.60;1.33;;;9.50;95.20;;;;;;5048190;28;20041;-59
2021/05/09 00:35:00;;;;;;;;;;;9.50;95.40;;;;;;5048121;28;20095;-57
2021/05/09 00:37:25;;;;;;;4.93;1.35;;;9.50;96.20;;;;;;5048344;28;20380;-61
2021/05/09 00:39:51;;;;;;;;;;;9.50;96.20;;;;;;5048410;28;20119;-59
2021/05/09 00:42:17;;;;;;;4.65;1.85;;;9.50;96.40;;;;;;5048222;28;20019;-57
2021/05/09 00:44:43;;;;;;;;;;;9.50;96.40;;;;;;5047253;28;20493;-60
2021/05/09 00:47:10;;;;;;;3.95;1.30;;;9.50;96.50;;;;;;5047701;28;19924;-60
2021/05/09 00:49:37;;;;;;;5.22;1.73;;;9.50;96.40;;;;;;5047748;28;20083;-59
2021/05/09 00:52:03;;;;;;;3.05;1.75;;;9.50;96.40;;;;;;5048012;28;20761;-60
2021/05/09 00:54:30;;;;;;;2.10;1.25;;;9.50;96.70;;;;;;5051697;28;20048;-61
2021/05/09 00:56:57;;;;;;;2.28;1.55;;;9.50;96.70;;;;;;5056686;28;20040;-59
2021/05/09 00:59:24;;;;;;;2.75;1.42;;;9.50;96.70;;;;;;5048238;28;20106;-61
2021/05/09 01:01:51;;;;;;;2.53;1.40;;;9.50;96.90;;;;;;5046413;28;20041;-60
2021/05/09 01:04:17;;;;;;;3.63;1.55;;;9.50;97.00;;;;;;5047275;28;20091;-61
2021/05/09 01:06:44;;;;;;;;;;;9.50;97.20;;;;;;5048843;28;20532;-61
2021/05/09 01:09:10;;;;;;;1.95;1.25;;;9.50;97.00;;;;;;5046347;28;19924;-59
2021/05/09 01:11:36;;;;;;;1.48;1.20;;;9.50;97.20;;;;;;5047660;28;20033;-59
2021/05/09 01:14:02;;;;;;;;;;;9.50;97.00;;;;;;5047213;28;20044;-60
2021/05/09 01:16:28;;;;;;;4.80;1.20;;;9.50;97.40;;;;;;5046685;28;19913;-55
2021/05/09 01:18:53;;;;;;;;;;;9.50;97.50;;;;;;5047676;28;20200;-58
2021/05/09 01:21:19;;;;;;;1.65;1.38;;;9.50;97.50;;;;;;5047839;28;19977;-50
2021/05/09 01:23:44;;;;;;;;;;;9.50;97.60;;;;;;5047854;28;20041;-59
2021/05/09 01:26:10;;;;;;;3.10;1.10;;;9.50;97.70;;;;;;5028640;28;19948;-60
2021/05/09 01:28:35;;;;;;;;;;;9.50;97.80;;;;;;5047397;28;20499;-55
2021/05/09 01:31:01;;;;;;;2.45;1.27;;;9.50;98.20;;;;;;5046819;28;19991;-55
2021/05/09 01:33:26;;;;;;;;;;;9.50;97.60;;;;;;5047775;28;20503;-58
2021/05/09 01:35:52;;;;;;;7.57;1.77;;;9.50;98.10;;;;;;5046746;28;19966;-59
2021/05/09 01:38:17;;;;;;;;;;;9.50;98.20;;;;;;5047706;28;20068;-55
2021/05/09 01:40:43;;;;;;;3.35;1.60;;;9.50;98.50;;;;;;5046744;28;19917;-59
2021/05/09 01:43:08;;;;;;;;;;;9.50;98.40;;;;;;5047142;28;20592;-53
2021/05/09 01:45:34;;;;;;;2.67;1.38;;;9.40;98.70;;;;;;5045769;28;19925;-58
2021/05/09 01:47:59;;;;;;;;;;;9.40;98.70;;;;;;5048785;28;20044;-60
2021/05/09 01:50:25;;;;;;;3.40;1.50;;;9.40;98.80;;;;;;5047833;28;19924;-61
2021/05/09 01:52:51;;;;;;;;;;;9.40;98.80;;;;;;5047029;28;20045;-60
2021/05/09 01:55:24;;;;;;;2.78;1.23;;;9.40;99.30;;;;;;5046086;28;19959;-60
2021/05/09 01:57:49;;;;;;;4.18;1.50;;;9.30;99.20;;;;;;5047309;28;20076;-58
2021/05/09 02:00:19;;;;;;;;;;;9.30;99.10;;;;;;5046687;28;20071;-60
2021/05/09 02:02:45;;;;;;;2.63;1.42;;;9.20;99.50;;;;;;5045967;28;19924;-58
2021/05/09 02:05:12;;;;;;;2.10;1.65;;;9.20;99.60;;;;;;5045565;28;20095;-58
2021/05/09 02:07:37;;;;;;;2.55;1.42;;;9.10;99.90;;;;;;5046843;28;20087;-60
2021/05/09 02:10:07;;;;;;;;;;;9.20;99.90;;;;;;5047580;28;20072;-61
2021/05/09 02:12:32;;;;;;;3.97;1.50;;;9.10;99.90;;;;;;5046168;28;20007;-59
2021/05/09 02:14:58;;;;;;;;;;;9.10;99.90;;;;;;5045885;28;20029;-55
2021/05/09 02:17:23;;;;;;;2.30;1.30;;;9.20;99.90;;;;;;5028437;28;19917;-59
2021/05/09 02:19:49;;;;;;;;;;;9.20;99.90;;;;;;5046650;28;20199;-60
2021/05/09 02:22:15;;;;;;;2.20;1.42;;;9.10;99.90;;;;;;5046768;28;19920;-60
2021/05/09 02:24:41;;;;;;;;;;;9.10;99.90;;;;;;5046682;28;20044;-59
2021/05/09 02:27:06;;;;;;;4.07;1.50;;;9.20;99.90;;;;;;5046648;28;19971;-60
2021/05/09 02:29:32;;;;;;;;;;;9.20;99.90;;;;;;5047325;28;20140;-60
2021/05/09 02:31:57;;;;;;;3.47;1.50;;;9.20;99.90;;;;;;5045392;28;20019;-59
2021/05/09 02:34:23;;;;;;;;;;;9.10;99.90;;;;;;5045770;28;20064;-59
2021/05/09 02:36:49;;;;;;;3.45;1.45;;;9.00;99.90;;;;;;5046717;28;19920;-58
2021/05/09 02:39:14;;;;;;;;;;;9.00;99.90;;;;;;5046716;28;20508;-57
2021/05/09 02:41:40;;;;;;;2.58;1.73;;;8.90;99.90;;;;;;5061367;28;19920;-61
2021/05/09 02:44:06;;;;;;;3.95;1.58;;;8.90;99.90;;;;;;5045340;28;20076;-58
2021/05/09 02:46:32;;;;;;;;;;;8.90;99.90;;;;;;5046695;28;20048;-60
2021/05/09 02:48:58;;;;;;;3.42;1.65;;;8.90;99.90;;;;;;5046838;28;19928;-59
2021/05/09 02:51:23;;;;;;;;;;;8.80;99.90;;;;;;5046852;28;20045;-60
2021/05/09 02:53:49;;;;;;;3.80;1.33;;;8.90;99.90;;;;;;5045720;28;19924;-60
2021/05/09 02:56:14;;;;;;;;;;;8.90;99.90;;;;;;5046541;28;20105;-58
2021/05/09 02:58:40;;;;;;;2.25;1.25;;;8.90;99.90;;;;;;5046470;28;19921;-60
2021/05/09 03:01:05;;;;;;;;;;;8.90;99.90;;;;;;5046372;28;20025;-59
2021/05/09 03:03:31;;;;;;;2.58;1.45;;;8.90;99.90;;;;;;5046055;28;19964;-60
2021/05/09 03:05:56;;;;;;;;;;;8.90;99.90;;;;;;5045619;28;20122;-58
2021/05/09 03:08:22;;;;;;;3.78;1.40;;;9.00;99.90;;;;;;5046107;28;19924;-60
2021/05/09 03:10:47;;;;;;;;;;;8.90;99.90;;;;;;5046046;28;20037;-59
2021/05/09 03:13:13;;;;;;;5.28;1.95;;;9.00;99.90;;;;;;5046001;28;19917;-59
2021/05/09 03:15:38;;;;;;;;;;;8.90;99.90;;;;;;5045089;28;20033;-56
2021/05/09 03:18:04;;;;;;;2.17;1.38;;;8.90;99.90;;;;;;5045580;28;19916;-59
2021/05/09 03:20:30;;;;;;;;;;;8.90;99.90;;;;;;5046089;28;20078;-60
2021/05/09 03:22:55;;;;;;;3.92;1.58;;;8.90;99.90;;;;;;5045425;28;19931;-57
2021/05/09 03:25:21;;;;;;;;;;;8.90;99.90;;;;;;5045936;28;20043;-55
2021/05/09 03:27:46;;;;;;;3.08;1.40;;;8.90;99.90;;;;;;5045903;28;19966;-59
2021/05/09 03:30:12;;;;;;;;;;;8.90;99.90;;;;;;5046205;28;20451;-58
2021/05/09 03:32:38;;;;;;;4.55;1.67;;;8.90;99.90;;;;;;5045961;28;20015;-57
2021/05/09 03:35:07;;;;;;;;;;;8.90;99.90;;;;;;5045439;28;20083;-57
2021/05/09 03:37:32;;;;;;;3.67;1.80;;;8.90;99.90;;;;;;5046117;28;19968;-60
2021/05/09 03:39:58;;;;;;;;;;;8.90;99.90;;;;;;5046513;28;20069;-58
2021/05/09 03:42:23;;;;;;;3.28;1.50;;;8.90;99.90;;;;;;5047527;28;19970;-59
2021/05/09 03:44:49;;;;;;;;;;;8.90;99.90;;;;;;5049388;28;20086;-59
2021/05/09 03:47:14;;;;;;;3.50;1.55;;;8.80;99.90;;;;;;5045373;28;19936;-60
2021/05/09 03:49:40;;;;;;;;;;;8.80;99.90;;;;;;5046330;28;20049;-61
2021/05/09 03:52:06;;;;;;;2.55;1.48;;;8.80;99.90;;;;;;5045747;28;19916;-60
2021/05/09 03:54:31;;;;;;;;;;;8.80;99.90;;;;;;5049082;28;20681;-60
2021/05/09 03:56:57;;;;;;;3.90;1.63;;;8.80;99.90;;;;;;5049896;28;19978;-63
2021/05/09 03:59:22;;;;;;;;;;;8.80;99.90;;;;;;5050093;28;20067;-60
2021/05/09 04:01:48;;;;;;;4.63;1.48;;;8.90;99.90;;;;;;5048772;28;19916;-62
2021/05/09 04:04:13;;;;;;;;;;;8.90;99.90;;;;;;5048048;28;20041;-58
2021/05/09 04:06:39;;;;;;;3.25;1.40;;;9.00;99.90;;;;;;5047441;28;19920;-60
2021/05/09 04:09:05;;;;;;;;;;;9.30;99.90;;;;;;5048608;28;20036;-61
2021/05/09 04:11:34;;;;;;;5.97;1.70;;;10.10;99.90;;;;;;5048894;28;20003;-60
2021/05/09 04:14:01;;;;;;;3.33;1.40;;;10.90;99.90;;;;;;5048717;28;20033;-60
2021/05/09 04:16:26;;;;;;;1.45;1.35;;;11.50;99.90;;;;;;5047696;28;20610;-58
2021/05/09 04:18:52;;;;;;;;;;;12.10;99.10;;;;;;5048867;28;20037;-58
2021/05/09 04:21:17;;;;;;;3.47;1.15;;;12.50;97.90;;;;;;5048559;28;20303;-58
2021/05/09 04:23:43;;;;;;;;;;;12.10;97.90;;;;;;5048064;28;20820;-53
2021/05/09 04:26:08;;;;;;;5.55;1.80;;;11.80;98.90;;;;;;5046282;28;19927;-55
2021/05/09 04:28:34;;;;;;;;;;;11.60;99.90;;;;;;5048445;28;20530;-58
2021/05/09 04:30:59;;;;;;;2.05;1.30;;;11.50;99.90;;;;;;5048355;28;19920;-58
2021/05/09 04:33:26;;;;;;;;;;;12.10;99.90;;;;;;5048279;28;20524;-59
2021/05/09 04:35:52;;;;;;;3.35;1.83;;;12.10;99.50;;;;;;5047865;28;20065;-59
2021/05/09 04:38:19;;;;;;;2.45;1.60;;;11.90;99.80;;;;;;5044263;28;20049;-55
2021/05/09 04:40:45;;;;;;;3.28;1.60;;;11.80;99.90;;;;;;5047781;28;20735;-57
2021/05/09 04:43:17;;;;;;;;;;;11.70;99.90;;;;;;5048150;28;20043;-56
2021/05/09 04:45:51;;;;;;;4.60;1.60;;;12.30;99.90;;;;;;5041242;28;19960;-52
2021/05/09 04:48:17;;;;;;;5.78;2.13;;;13.30;97.60;;;;;;5045406;28;20040;-55
2021/05/09 04:50:43;;;;;;;4.38;1.50;;;13.30;96.40;;;;;;5047705;28;20040;-57
2021/05/09 04:53:27;;;;;;;;;;;13.20;96.30;;;;;;5045968;28;20041;-58
2021/05/09 04:55:57;;;;;;;1.63;1.20;;;13.30;96.90;;;;;;5055791;28;20019;-58
2021/05/09 04:58:24;;;;;;;3.63;1.30;;;13.90;96.00;;;;;;5039321;28;20048;-57
2021/05/09 05:00:59;;;;;;;2.97;1.45;;;14.10;94.80;;;;;;5032923;28;20049;-58
2021/05/09 05:03:25;;;;;;;3.90;1.63;;;14.90;94.20;;;;;;5040198;28;20094;-58
2021/05/09 05:05:51;;;;;;;;;;;16.60;91.60;;;;;;5046793;28;20041;-59
2021/05/09 05:08:16;;;;;;;3.65;1.13;;;17.70;84.10;;;;;;5046443;28;20339;-59
2021/05/09 05:10:42;;;;;;;;;;;18.70;81.40;;;;;;5047993;28;20593;-59
2021/05/09 05:13:22;;;;;;;2.22;1.20;;;19.40;74.50;;;;;;5046996;28;19999;-59
2021/05/09 05:15:50;;;;;;;2.65;1.40;;;19.40;72.40;;;;;;5046168;28;20040;-60
2021/05/09 05:18:16;;;;;;;5.53;1.20;;;19.70;72.20;;;;;;5047596;28;20382;-61
2021/05/09 05:20:42;;;;;;;3.30;1.48;;;19.30;70.80;;;;;;5048238;28;20127;-53
2021/05/09 05:23:09;;;;;;;3.17;1.27;;;18.40;74.30;;;;;;5047199;28;20038;-53
2021/05/09 05:25:34;;;;;;;3.00;1.42;;;18.10;74.00;;;;;;5046136;28;20043;-58
2021/05/09 05:28:00;;;;;;;;;;;17.90;75.40;;;;;;5047679;28;20798;-60
2021/05/09 05:30:26;;;;;;;3.38;1.25;;;18.10;77.60;;;;;;5046245;28;20295;-60
2021/05/09 05:32:52;;;;;;;;;;;18.00;75.30;;;;;;5047053;28;20116;-59
2021/05/09 05:35:17;;;;;;;4.05;1.20;;;18.00;75.90;;;;;;5046396;28;20011;-59
2021/05/09 05:37:43;;;;;;;;;;;17.90;77.70;;;;;;5046936;28;20505;-59
2021/05/09 05:40:09;;;;;;;3.83;1.10;;;18.00;76.30;;;;;;5047459;28;20364;-59
2021/05/09 05:42:34;;;;;;;3.70;1.20;;;18.70;74.80;;;;;;5045853;28;20029;-60
2021/05/09 05:45:00;;;;;;;2.13;1.30;;;19.70;71.50;;;;;;5048235;28;20048;-59
2021/05/09 05:47:25;;;;;;;3.25;1.30;;;20.40;68.20;;;;;;5046415;28;20132;-58
2021/05/09 05:49:55;;;;;;;2.15;1.30;;;20.80;66.00;;;;;;5046843;28;20728;-56
2021/05/09 05:52:20;;;;;;;1.92;1.13;;;20.80;64.70;;;;;;5046250;28;20048;-59
2021/05/09 05:54:46;;;;;;;2.03;1.25;;;20.40;65.10;;;;;;5045623;28;20093;-59
2021/05/09 05:57:11;;;;;;;2.20;1.00;;;20.40;63.80;;;;;;5047066;28;20036;-59
2021/05/09 05:59:37;;;;;;;5.30;2.35;;;20.50;63.40;;;;;;5045907;28;20091;-59
2021/05/09 06:02:02;;;;;;;5.40;4.22;;;21.40;62.70;;;;;;5044820;28;20410;-60
2021/05/09 06:04:28;;;;;;;2.55;1.10;;;22.20;59.30;;;;;;5045463;28;20037;-59
2021/05/09 06:06:54;;;;;;;4.10;1.00;;;22.30;58.00;;;;;;5046628;28;20133;-59
2021/05/09 06:09:19;;;;;;;3.03;1.90;;;21.30;60.10;;;;;;5047348;28;20037;-59
2021/05/09 06:11:45;;;;;;;2.40;2.00;;;21.30;62.10;;;;;;5046139;28;20087;-55
2021/05/09 06:14:10;;;;;;;2.50;1.77;;;20.60;63.00;;;;;;5045638;28;20098;-58
2021/05/09 06:16:36;;;;;;;4.05;1.10;;;20.30;65.60;;;;;;5045670;28;20055;-59
2021/05/09 06:19:01;;;;;;;5.18;3.20;;;20.30;64.30;;;;;;5046766;28;20396;-59
2021/05/09 06:21:27;;;;;;;1.90;1.20;;;21.20;62.60;;;;;;5028830;28;20075;-58
2021/05/09 06:23:52;;;;;;;2.35;1.15;;;22.20;59.30;;;;;;5045021;28;20072;-59
2021/05/09 06:26:18;;;;;;;4.28;2.00;;;23.00;56.70;;;;;;5046712;28;20133;-59
2021/05/09 06:28:43;;;;;;;12.60;2.60;;;22.60;57.40;;;;;;5046017;28;20041;-59
2021/05/09 06:31:09;;;;;;;2.75;1.83;;;22.20;57.60;;;;;;5046335;28;20827;-58
2021/05/09 06:33:35;;;;;;;3.00;1.05;;;21.90;59.90;;;;;;5046764;28;20065;-59
2021/05/09 06:36:00;;;;;;;7.43;1.67;;;20.60;60.90;;;;;;5046352;28;20123;-58
2021/05/09 06:38:26;;;;;;;5.03;3.10;;;20.00;64.10;;;;;;5047319;28;20052;-59
2021/05/09 06:40:52;;;;;;;2.08;1.10;;;19.70;66.10;;;;;;5045387;28;20167;-59
2021/05/09 06:43:18;;;;;;;3.58;1.10;;;19.50;68.00;;;;;;5045834;28;20150;-60
2021/05/09 06:45:45;;;;;;;4.55;0.95;;;19.80;66.90;;;;;;5045165;28;20064;-60
2021/05/09 06:48:11;;;;;;;1.15;0.93;;;20.10;66.00;;;;;;5046141;28;20159;-59
2021/05/09 06:50:37;;;;;;;4.90;2.30;;;20.50;63.50;;;;;;5046073;28;20048;-58
2021/05/09 06:53:04;;;;;;;5.22;2.58;;;20.90;62.80;;;;;;5045848;28;20033;-59
2021/05/09 06:55:29;;;;;;;1.10;0.98;;;21.80;60.60;;;;;;5045617;28;20548;-59
2021/05/09 06:57:56;;;;;;;2.95;1.00;;;22.60;57.20;;;;;;5045162;28;20040;-60
2021/05/09 07:00:22;;;;;;;1.23;0.95;;;23.10;54.30;;;;;;5045139;28;20049;-60
2021/05/09 07:02:48;;;;;;;3.30;0.90;;;24.00;52.20;;;;;;5047901;28;20091;-60
2021/05/09 07:05:14;;;;;;;1.27;0.80;;;24.40;51.10;;;;;;5045086;28;20094;-60
2021/05/09 07:07:56;;;;;;;1.80;1.08;;;24.60;49.60;;;;;;5045446;28;20132;-59
2021/05/09 07:10:24;;;;;;;1.63;0.95;;;24.70;49.30;;;;;;5045485;28;20041;-60
2021/05/09 07:12:50;;;;;;;6.95;1.02;;;24.90;48.70;;;;;;5044798;28;20048;-60
2021/05/09 07:15:24;;;;;;;2.67;1.08;;;24.40;49.00;;;;;;5044079;28;20043;-59
2021/05/09 07:18:07;;;;;;;5.28;4.10;;;24.10;49.60;;;;;;5028074;28;20520;-60
2021/05/09 07:20:35;;;;;;;3.47;1.20;;;24.30;52.10;;;;;;5045794;28;20043;-59
2021/05/09 07:23:01;;;;;;;2.67;1.23;;;23.50;52.50;;;;;;5044770;28;20045;-60
2021/05/09 07:25:27;;;;;;;2.08;1.35;;;23.60;52.40;;;;;;5044192;28;20123;-60
2021/05/09 07:27:53;;;;;;;3.05;1.08;;;23.90;50.70;;;;;;5047409;28;20116;-60
2021/05/09 07:30:21;;;;;;;1.30;1.02;;;24.40;51.10;;;;;;5048705;28;20040;-62
2021/05/09 07:32:47;;;;;;;1.77;0.73;;;24.70;49.70;;;;;;5048680;28;20041;-59
2021/05/09 07:35:13;;;;;;;2.63;1.35;;;25.10;50.70;;;;;;5047492;28;20207;-59
2021/05/09 07:37:38;;;;;;;2.30;1.15;;;24.70;50.20;;;;;;5048915;28;20044;-59
2021/05/09 07:40:05;;;;;;;1.25;0.95;;;24.10;51.20;;;;;;5053035;28;20041;-59
2021/05/09 07:42:30;;;;;;;6.60;1.20;;;23.90;53.90;;;;;;5047220;28;20517;-59
2021/05/09 07:44:59;;;;;;;3.90;1.10;;;23.70;51.90;;;;;;5048254;28;20072;-59
2021/05/09 07:47:25;;;;;;;2.00;1.00;;;23.80;51.30;;;;;;5047845;28;20069;-58
2021/05/09 07:49:52;;;;;;;1.73;1.00;;;24.10;50.30;;;;;;5047302;28;20504;-61
2021/05/09 07:52:17;;;;;;;6.35;1.63;;;24.60;51.80;;;;;;5048968;28;20032;-60
2021/05/09 07:54:43;;;;;;;2.25;1.00;;;24.40;51.00;;;;;;5048033;28;20587;-59
2021/05/09 07:57:08;;;;;;;7.72;1.13;;;24.50;49.90;;;;;;5049070;28;20044;-56
2021/05/09 07:59:34;;;;;;;3.05;1.10;;;24.80;50.70;;;;;;5048126;28;20048;-59
2021/05/09 08:02:01;;;;;;;4.97;1.30;;;24.90;48.80;;;;;;5048010;28;20404;-58
2021/05/09 08:04:26;;;;;;;2.25;0.93;;;24.20;48.70;;;;;;5047591;28;20037;-60
2021/05/09 08:06:52;;;;;;;2.50;1.05;;;24.50;48.70;;;;;;5047990;28;20055;-60
2021/05/09 08:09:17;;;;;;;6.00;0.90;;;25.10;47.20;;;;;;5047868;28;20043;-59
2021/05/09 08:11:43;;;;;;;1.50;1.10;;;26.50;47.90;;;;;;5047844;28;20032;-60
2021/05/09 08:14:08;;;;;;;6.00;1.10;;;26.70;45.00;;;;;;5048315;28;20040;-59
2021/05/09 08:16:34;;;;;;;3.72;1.85;;;26.90;46.90;;;;;;5043188;28;20052;-58
2021/05/09 08:19:00;;;;;;;3.65;1.35;;;27.40;44.90;;;;;;5047601;28;20068;-59
2021/05/09 08:21:25;;;;;;;1.33;1.00;;;26.80;43.10;;;;;;5048237;28;20067;-60
2021/05/09 08:23:51;;;;;;;2.92;0.85;;;26.80;45.90;;;;;;5047730;28;20556;-59
2021/05/09 08:26:16;;;;;;;3.33;1.13;;;27.30;43.00;;;;;;5048501;28;20468;-60
2021/05/09 08:28:42;;;;;;;6.80;1.30;;;28.00;42.40;;;;;;5046937;28;20033;-60
2021/05/09 08:31:15;;;;;;;4.05;1.33;;;28.00;39.90;;;;;;5047327;28;20124;-60
2021/05/09 08:33:41;;;;;;;4.90;1.67;;;28.20;41.20;;;;;;5048137;28;20736;-60
2021/05/09 08:36:06;;;;;;;2.05;0.90;;;28.00;40.00;;;;;;5047887;28;20148;-59
2021/05/09 08:38:32;;;;;;;2.65;1.30;;;28.40;42.40;;;;;;5047297;28;20547;-60
2021/05/09 08:40:58;;;;;;;4.57;1.30;;;28.90;42.50;;;;;;5047820;28;20338;-59
2021/05/09 08:43:24;;;;;;;4.05;1.35;;;29.20;40.00;;;;;;5047908;28;20571;-60
2021/05/09 08:45:50;;;;;;;2.75;1.10;;;29.20;40.00;;;;;;5046609;28;20057;-59
2021/05/09 08:48:19;;;;;;;3.55;1.30;;;28.80;41.50;;;;;;5046894;28;20033;-60
2021/05/09 08:50:46;;;;;;;1.80;1.17;;;28.10;42.50;;;;;;5048153;28;20484;-59
2021/05/09 08:53:16;;;;;;;2.45;1.20;;;26.50;45.20;;;;;;5047331;28;20394;-58
2021/05/09 08:55:42;;;;;;;4.47;2.17;;;25.30;47.80;;;;;;5046667;28;20040;-59
2021/05/09 08:58:09;;;;;;;1.88;1.20;;;24.50;51.40;;;;;;5047463;28;20037;-60
2021/05/09 09:00:35;;;;;;;2.70;1.30;;;23.70;51.90;;;;;;5046506;28;20113;-59
2021/05/09 09:03:03;;;;;;;1.85;1.23;;;23.50;54.00;;;;;;5035722;28;20128;-58
2021/05/09 09:05:44;;;;;;;3.55;1.42;;;23.20;53.90;;;;;;5046571;28;20051;-57
2021/05/09 09:08:11;;;;;;;2.60;1.30;;;23.00;55.00;;;;;;5048514;28;20738;-57
2021/05/09 09:10:38;;;;;;;1.83;1.17;;;23.00;56.60;;;;;;5048859;28;20496;-59
2021/05/09 09:13:38;;;;;;;3.58;1.98;;;22.80;55.50;;;;;;5047121;28;20490;-54
2021/05/09 09:16:05;;;;;;;5.50;4.47;;;22.60;56.60;;;;;;5047132;28;20075;-58
2021/05/09 09:18:39;;;;;;;3.13;2.38;;;22.80;57.60;;;;;;5029415;28;20032;-56
2021/05/09 09:21:32;;;;;;;4.05;2.50;;;22.70;55.90;;;;;;5047530;28;20851;-59
2021/05/09 09:24:11;;;;;;;2.20;1.23;;;22.50;57.90;;;;;;5046902;28;20041;-60
2021/05/09 09:26:39;;;;;;;3.88;1.80;;;22.40;58.10;;;;;;5047109;28;20041;-60
2021/05/09 09:29:36;;;;;;;3.53;1.70;;;22.20;59.20;;;;;;5046734;28;20040;-58
2021/05/09 09:32:08;;;;;;;3.33;1.95;;;22.20;59.30;;;;;;5047283;28;20113;-58
2021/05/09 09:34:45;;;;;;;7.65;1.70;;;21.90;59.00;;;;;;5046157;28;20041;-59
2021/05/09 09:37:13;;;;;;;4.13;1.52;;;21.80;59.50;;;;;;5047019;28;20051;-59
2021/05/09 09:39:59;;;;;;;3.70;1.60;;;21.70;60.10;;;;;;5048592;28;20043;-59
2021/05/09 09:42:36;;;;;;;3.50;1.60;;;21.70;61.40;;;;;;5046643;28;20045;-57
2021/05/09 09:45:16;;;;;;;6.95;2.20;;;21.40;60.70;;;;;;5046595;28;20128;-59
2021/05/09 09:47:56;;;;;;;4.82;2.13;;;21.40;63.90;;;;;;5045956;28;20059;-60
2021/05/09 09:50:42;;;;;;;4.05;1.98;;;21.60;64.10;;;;;;5045336;28;20049;-59
2021/05/09 09:53:30;;;;;;;2.47;1.50;;;21.60;61.00;;;;;;5046218;28;20047;-58
2021/05/09 09:56:10;;;;;;;2.53;1.20;;;21.70;60.90;;;;;;5046116;28;20052;-57
2021/05/09 09:58:47;;;;;;;3.60;1.60;;;21.90;63.10;;;;;;5042929;28;20040;-58
2021/05/09 10:01:15;;;;;;;5.47;1.42;;;21.80;61.10;;;;;;5046599;28;20473;-58
2021/05/09 10:03:40;;;;;;;3.05;1.67;;;21.60;61.50;;;;;;5045773;28;20114;-58
2021/05/09 10:06:06;;;;;;;8.18;4.25;;;21.50;61.10;;;;;;5046522;28;20514;-56
2021/05/09 10:08:33;;;;;;;6.93;1.65;;;21.30;63.80;;;;;;5040109;28;20514;-63
2021/05/09 10:11:01;;;;;;;2.83;1.80;;;21.40;62.80;;;;;;5045033;28;20094;-58
2021/05/09 10:13:27;;;;;;;4.22;1.85;;;21.50;64.60;;;;;;5053096;28;20095;-60
2021/05/09 10:15:53;;;;;;;3.03;1.77;;;21.50;64.40;;;;;;5044084;28;20045;-56
2021/05/09 10:18:20;;;;;;;5.38;2.28;;;21.60;63.50;;;;;;5049041;28;20037;-59
2021/05/09 10:20:46;;;;;;;6.07;1.83;;;21.70;64.80;;;;;;5053800;28;20041;-59
2021/05/09 10:23:12;;;;;;;3.35;1.85;;;21.70;62.50;;;;;;5045569;28;20052;-58
2021/05/09 10:25:55;;;;;;;4.15;1.77;;;21.70;62.60;;;;;;5044431;28;20428;-59
2021/05/09 10:28:24;;;;;;;2.65;1.35;;;21.70;65.80;;;;;;5042025;28;20098;-58
2021/05/09 10:30:58;;;;;;;4.90;1.50;;;22.00;64.10;;;;;;5028398;28;20064;-58
2021/05/09 10:33:41;;;;;;;3.47;1.38;;;22.10;61.80;;;;;;5045356;28;20119;-60
2021/05/09 10:36:19;;;;;;;3.03;1.85;;;22.20;62.70;;;;;;5045173;28;20052;-59
2021/05/09 10:39:07;;;;;;;6.72;1.50;;;22.20;61.90;;;;;;5046866;28;20048;-59
2021/05/09 10:41:34;;;;;;;5.57;1.77;;;22.20;63.20;;;;;;5045554;28;20116;-58
2021/05/09 10:44:00;;;;;;;4.75;1.80;;;22.10;62.20;;;;;;5043998;28;20041;-59
2021/05/09 10:46:25;;;;;;;2.58;1.50;;;22.20;62.60;;;;;;5045492;28;20579;-58
2021/05/09 10:49:10;;;;;;;4.78;1.70;;;22.30;62.20;;;;;;5044871;28;20116;-58
2021/05/09 10:51:37;;;;;;;5.90;1.90;;;22.30;63.00;;;;;;5040322;28;20405;-58
2021/05/09 10:54:24;;;;;;;4.95;1.40;;;22.20;63.70;;;;;;5044284;28;20063;-58
2021/05/09 10:56:53;;;;;;;9.05;2.10;;;22.50;64.80;;;;;;5044826;28;20045;-58
2021/05/09 10:59:20;;;;;;;6.15;1.65;;;22.80;64.20;;;;;;5044892;28;20505;-58
2021/05/09 11:02:04;;;;;;;5.18;1.77;;;22.70;60.90;;;;;;5044145;28;20045;-59
2021/05/09 11:04:47;;;;;;;4.25;2.25;;;22.70;61.20;;;;;;5028956;28;20041;-59
2021/05/09 11:07:42;;;;;;;6.03;2.00;;;22.50;61.00;;;;;;5032014;28;20079;-59
2021/05/09 11:10:37;;;;;;;9.55;2.85;;;22.60;62.10;;;;;;5025199;28;20049;-55
2021/05/09 11:13:09;;;;;;;8.02;2.75;;;22.60;63.00;;;;;;5047107;28;20037;-58
2021/05/09 11:15:35;;;;;;;3.83;2.13;;;22.80;65.80;;;;;;5043912;28;20044;-58
2021/05/09 11:18:13;;;;;;;6.63;2.28;;;23.00;63.10;;;;;;5045104;28;20036;-59
2021/05/09 11:20:51;;;;;;;1.85;1.40;;;23.00;60.50;;;;;;5045163;28;20041;-59
2021/05/09 11:23:17;;;;;;;7.97;2.33;;;23.10;61.00;;;;;;5044936;28;20041;-55
2021/05/09 11:25:43;;;;;;;5.55;1.63;;;23.00;59.80;;;;;;5044177;28;20079;-58
2021/05/09 11:28:09;;;;;;;3.30;1.80;;;22.70;59.90;;;;;;5045598;28;20048;-59
2021/05/09 11:30:36;;;;;;;2.80;2.38;;;22.70;61.20;;;;;;5044347;28;20037;-58
2021/05/09 11:33:02;;;;;;;5.75;1.63;;;22.70;61.10;;;;;;5044685;28;20045;-58
2021/05/09 11:35:40;;;;;;;4.13;1.25;;;22.80;61.40;;;;;;5044270;28;20503;-60
2021/05/09 11:38:15;;;;;;;3.38;1.40;;;22.90;64.60;;;;;;5044592;28;20497;-58
2021/05/09 11:40:42;;;;;;;3.90;1.55;;;23.10;61.10;;;;;;5043364;28;20128;-59
2021/05/09 11:43:12;;;;;;;4.25;2.05;;;23.10;59.90;;;;;;5043733;28;20037;-59
2021/05/09 11:45:38;;;;;;;4.93;1.70;;;23.20;60.30;;;;;;5043558;28;20048;-59
2021/05/09 11:48:04;;;;;;;7.18;4.15;;;23.00;58.60;;;;;;5042136;28;20017;-61
2021/05/09 11:50:30;;;;;;;4.35;2.22;;;22.90;59.90;;;;;;5044837;28;20617;-59
2021/05/09 11:52:55;;;;;;;3.08;1.52;;;23.00;60.60;;;;;;5046055;28;20048;-59
2021/05/09 11:55:22;;;;;;;4.53;1.70;;;23.10;59.70;;;;;;5042327;28;20035;-57
2021/05/09 11:57:47;;;;;;;2.45;1.40;;;23.20;58.50;;;;;;5043462;28;20049;-58
2021/05/09 12:00:17;;;;;;;2.42;1.73;;;23.20;59.60;;;;;;5043869;28;20063;-57
2021/05/09 12:02:44;;;;;;;5.43;1.88;;;23.20;58.40;;;;;;5044545;28;20179;-59
2021/05/09 12:05:10;;;;;;;3.15;1.70;;;23.30;58.50;;;;;;5044003;28;20052;-57
2021/05/09 12:07:44;;;;;;;2.38;1.65;;;23.40;59.90;;;;;;5043484;28;20049;-57
2021/05/09 12:10:26;;;;;;;6.72;1.80;;;23.40;57.40;;;;;;5040924;28;20033;-55
2021/05/09 12:12:56;;;;;;;3.30;1.70;;;23.30;57.70;;;;;;5043587;28;20041;-59
2021/05/09 12:15:22;;;;;;;13.32;4.60;;;23.40;57.70;;;;;;5046236;28;20037;-59
2021/05/09 12:17:56;;;;;;;17.20;10.45;;;23.40;57.70;;;;;;5041640;28;20052;-58
2021/05/09 12:20:28;;;;;;;4.43;1.48;;;23.40;58.90;;;;;;5041278;28;20132;-60
2021/05/09 12:22:54;;;;;;;4.35;1.40;;;23.30;57.70;;;;;;5042449;28;20041;-59
2021/05/09 12:25:31;;;;;;;2.55;1.35;;;23.20;59.40;;;;;;5027505;28;20497;-58
2021/05/09 12:28:10;;;;;;;7.57;2.35;;;23.20;58.80;;;;;;5034236;28;20847;-59
2021/05/09 12:30:35;;;;;;;3.58;1.98;;;23.20;59.60;;;;;;5036254;28;20087;-59
2021/05/09 12:33:01;;;;;;;4.65;1.90;;;23.20;59.30;;;;;;5036826;28;20037;-55
2021/05/09 12:35:27;;;;;;;6.25;1.45;;;23.30;57.70;;;;;;5036592;28;20057;-57
2021/05/09 12:37:53;;;;;;;1.92;1.50;;;23.30;58.10;;;;;;5046001;28;20123;-57
2021/05/09 12:40:29;;;;;;;3.58;1.55;;;23.40;58.80;;;;;;5047390;28;20718;-59
2021/05/09 12:42:56;;;;;;;3.30;1.40;;;23.50;59.70;;;;;;5046815;28;20124;-59
2021/05/09 12:45:27;;;;;;;3.50;1.48;;;23.60;58.00;;;;;;5046384;28;20045;-60
2021/05/09 12:48:01;;;;;;;1.85;1.30;;;23.80;58.70;;;;;;5046354;28;20045;-58
2021/05/09 12:50:50;;;;;;;8.57;1.98;;;23.90;57.50;;;;;;5046172;28;20126;-59
2021/05/09 12:53:40;;;;;;;4.93;1.40;;;23.80;56.30;;;;;;5046867;28;20052;-60
2021/05/09 12:56:29;;;;;;;4.07;1.50;;;23.90;56.60;;;;;;5046999;28;20049;-59
2021/05/09 12:59:00;;;;;;;2.17;1.52;;;23.90;57.70;;;;;;5046410;28;20043;-60
2021/05/09 13:01:29;;;;;;;6.55;1.55;;;23.90;55.90;;;;;;5046282;28;20060;-60
2021/05/09 13:03:55;;;;;;;2.75;2.33;;;24.00;57.80;;;;;;5046104;28;20045;-60
2021/05/09 13:06:21;;;;;;;4.65;1.83;;;24.00;57.10;;;;;;5076192;28;20041;-57
2021/05/09 13:08:47;;;;;;;5.07;2.00;;;24.00;57.40;;;;;;5048514;28;20917;-57
2021/05/09 13:11:13;;;;;;;2.75;1.58;;;24.00;56.50;;;;;;5047584;28;20052;-55